createdAt,value
2023-03-12T00:01:20.442Z,2.42
2023-03-12T00:03:48.037Z,2.47
2023-03-12T00:06:15.000Z,2.65
2023-03-12T00:08:41.920Z,3.00
2023-03-12T00:11:12.249Z,2.00
2023-03-12T00:13:39.660Z,2.60
2023-03-12T00:16:09.222Z,2.80
2023-03-12T00:18:36.036Z,2.70
2023-03-12T00:21:03.351Z,3.28
2023-03-12T00:23:30.523Z,3.00
2023-03-12T00:26:00.692Z,2.97
2023-03-12T00:28:29.205Z,2.72
2023-03-12T00:30:57.298Z,2.70
2023-03-12T00:33:24.485Z,2.92
2023-03-12T00:35:51.614Z,2.88
2023-03-12T00:38:18.938Z,2.70
2023-03-12T00:40:45.707Z,2.72
2023-03-12T00:43:12.583Z,3.28
2023-03-12T00:45:40.710Z,2.88
2023-03-12T00:48:07.779Z,3.03
2023-03-12T00:50:34.571Z,2.90
2023-03-12T00:53:03.918Z,2.92
2023-03-12T00:55:30.841Z,2.85
2023-03-12T00:57:57.678Z,3.20
2023-03-12T01:00:24.715Z,2.95
2023-03-12T01:02:53.107Z,2.92
2023-03-12T01:05:20.009Z,2.95
2023-03-12T01:07:46.745Z,3.42
2023-03-12T01:10:14.948Z,3.20
2023-03-12T01:12:41.812Z,3.30
2023-03-12T01:15:12.768Z,3.97
2023-03-12T01:17:39.624Z,3.47
2023-03-12T01:20:09.831Z,3.70
2023-03-12T01:22:36.916Z,3.22
2023-03-12T01:25:04.079Z,2.70
2023-03-12T01:27:30.895Z,3.20
2023-03-12T01:29:57.738Z,2.97
2023-03-12T01:32:24.541Z,3.25
2023-03-12T01:34:51.297Z,3.63
2023-03-12T01:37:19.404Z,2.65
2023-03-12T01:39:46.171Z,3.17
2023-03-12T01:42:13.036Z,2.78
2023-03-12T01:44:53.417Z,2.97
2023-03-12T01:47:20.316Z,2.90
2023-03-12T01:49:48.857Z,2.65
2023-03-12T01:52:19.936Z,3.22
2023-03-12T01:54:53.236Z,3.15
2023-03-12T01:57:23.880Z,3.20
2023-03-12T01:59:53.174Z,3.53
2023-03-12T02:02:20.756Z,3.15
2023-03-12T02:04:47.683Z,3.38
2023-03-12T02:07:16.854Z,3.58
2023-03-12T02:09:45.958Z,2.83
2023-03-12T02:12:14.073Z,3.00
2023-03-12T02:14:41.613Z,3.15
2023-03-12T02:17:09.686Z,3.17
2023-03-12T02:19:42.502Z,2.75
2023-03-12T02:22:11.028Z,2.97
2023-03-12T02:24:44.706Z,3.13
2023-03-12T02:27:13.098Z,3.30
2023-03-12T02:29:44.566Z,3.25
2023-03-12T02:32:17.736Z,3.03
2023-03-12T02:34:44.542Z,2.97
2023-03-12T02:37:11.249Z,3.53
2023-03-12T02:39:39.913Z,3.60
2023-03-12T02:42:06.828Z,3.63
2023-03-12T02:44:34.947Z,3.53
2023-03-12T02:47:01.897Z,3.38
2023-03-12T02:49:30.945Z,3.22
2023-03-12T02:51:59.087Z,2.67
2023-03-12T02:54:26.489Z,3.60
2023-03-12T02:56:54.181Z,3.45
2023-03-12T02:59:22.696Z,3.20
2023-03-12T03:01:54.036Z,2.97
2023-03-12T03:04:20.916Z,3.45
2023-03-12T03:06:47.698Z,4.25
2023-03-12T03:09:14.513Z,3.28
2023-03-12T03:11:41.376Z,3.10
2023-03-12T03:14:08.170Z,3.13
2023-03-12T03:16:35.255Z,4.07
2023-03-12T03:19:03.512Z,3.50
2023-03-12T03:21:30.534Z,2.97
2023-03-12T03:23:57.306Z,3.35
2023-03-12T03:26:26.092Z,3.33
2023-03-12T03:28:53.104Z,3.40
2023-03-12T03:31:20.013Z,3.40
2023-03-12T03:33:47.172Z,4.07
2023-03-12T03:36:15.568Z,3.30
2023-03-12T03:38:42.945Z,3.72
2023-03-12T03:41:09.661Z,3.28
2023-03-12T03:43:36.528Z,2.50
2023-03-12T03:46:05.520Z,3.13
2023-03-12T03:48:32.716Z,3.47
2023-03-12T03:51:00.712Z,2.92
2023-03-12T03:53:29.384Z,2.97
2023-03-12T03:55:56.134Z,3.45
2023-03-12T03:58:23.038Z,2.97
2023-03-12T04:00:50.117Z,3.35
2023-03-12T04:03:16.901Z,3.00
2023-03-12T04:05:43.686Z,3.38
2023-03-12T04:08:10.710Z,3.42
2023-03-12T04:10:38.843Z,3.33
2023-03-12T04:13:05.668Z,3.35
2023-03-12T04:15:32.402Z,3.10
2023-03-12T04:17:59.216Z,3.53
2023-03-12T04:20:25.977Z,3.13
2023-03-12T04:22:52.674Z,3.00
2023-03-12T04:25:19.388Z,2.92
2023-03-12T04:27:47.650Z,3.55
2023-03-12T04:30:14.697Z,3.42
2023-03-12T04:32:41.484Z,3.35
2023-03-12T04:35:08.701Z,3.58
2023-03-12T04:37:35.488Z,3.10
2023-03-12T04:40:03.695Z,3.33
2023-03-12T04:42:30.415Z,3.70
2023-03-12T04:44:58.747Z,4.10
2023-03-12T04:47:25.502Z,3.50
2023-03-12T04:49:52.408Z,3.85
2023-03-12T04:52:19.171Z,3.22
2023-03-12T04:54:48.098Z,3.72
2023-03-12T04:57:14.968Z,3.30
2023-03-12T04:59:41.707Z,2.95
2023-03-12T05:02:10.281Z,3.72
2023-03-12T05:04:37.148Z,3.72
2023-03-12T05:07:04.167Z,3.90
2023-03-12T05:09:30.915Z,4.05
2023-03-12T05:11:57.670Z,3.83
2023-03-12T05:14:24.469Z,3.60
2023-03-12T05:16:51.227Z,4.10
2023-03-12T05:19:19.511Z,3.85
2023-03-12T05:21:46.254Z,3.83
2023-03-12T05:24:13.034Z,3.47
2023-03-12T05:26:40.013Z,3.20
2023-03-12T05:29:06.737Z,3.80
2023-03-12T05:31:33.760Z,4.05
2023-03-12T05:34:00.703Z,3.70
2023-03-12T05:36:28.818Z,3.63
2023-03-12T05:38:55.559Z,3.22
2023-03-12T05:41:25.742Z,4.07
2023-03-12T05:43:53.458Z,3.42
2023-03-12T05:46:20.484Z,3.90
2023-03-12T05:48:47.275Z,3.60
2023-03-12T05:51:14.263Z,3.35
2023-03-12T05:53:42.372Z,4.13
2023-03-12T05:56:12.509Z,4.05
2023-03-12T05:58:40.050Z,3.95
2023-03-12T06:01:12.273Z,2.90
2023-03-12T06:03:39.237Z,3.40
2023-03-12T06:06:06.152Z,3.08
2023-03-12T06:08:32.883Z,3.92
2023-03-12T06:11:00.960Z,3.63
2023-03-12T06:13:27.733Z,3.22
2023-03-12T06:15:54.669Z,4.05
2023-03-12T06:18:21.389Z,3.65
2023-03-12T06:20:48.072Z,3.40
2023-03-12T06:23:14.848Z,3.58
2023-03-12T06:25:45.105Z,3.67
2023-03-12T06:28:13.253Z,4.40
2023-03-12T06:30:40.001Z,3.95
2023-03-12T06:33:06.678Z,3.40
2023-03-12T06:35:34.435Z,3.35
2023-03-12T06:38:01.288Z,3.30
2023-03-12T06:40:28.005Z,4.10
2023-03-12T06:42:54.735Z,3.80
2023-03-12T06:45:22.891Z,3.63
2023-03-12T06:47:49.742Z,3.65
2023-03-12T06:50:16.754Z,3.35
2023-03-12T06:52:43.453Z,4.00
2023-03-12T06:55:10.314Z,4.53
2023-03-12T06:57:37.274Z,3.83
2023-03-12T07:00:05.279Z,4.10
2023-03-12T07:02:33.359Z,6.30
2023-03-12T07:05:00.211Z,4.55
2023-03-12T07:07:27.081Z,4.63
2023-03-12T07:09:53.843Z,4.47
2023-03-12T07:12:20.547Z,5.70
2023-03-12T07:14:47.334Z,5.18
2023-03-12T07:17:14.065Z,5.22
2023-03-12T07:19:42.163Z,4.80
2023-03-12T07:22:08.977Z,4.68
2023-03-12T07:24:35.707Z,4.55
2023-03-12T07:27:02.450Z,4.60
2023-03-12T07:29:29.184Z,6.43
2023-03-12T07:31:55.935Z,4.75
2023-03-12T07:34:22.753Z,5.80
2023-03-12T07:36:51.107Z,5.25
2023-03-12T07:39:18.068Z,5.72
2023-03-12T07:41:44.875Z,5.55
2023-03-12T07:44:11.672Z,6.57
2023-03-12T07:46:38.509Z,6.35
2023-03-12T07:49:05.253Z,6.65
2023-03-12T07:51:32.019Z,7.30
2023-03-12T07:54:00.171Z,6.15
2023-03-12T07:56:26.992Z,7.03
2023-03-12T07:58:54.500Z,6.15
2023-03-12T08:01:21.465Z,6.07
2023-03-12T08:03:48.632Z,6.10
2023-03-12T08:06:15.549Z,6.43
2023-03-12T08:08:42.437Z,6.90
2023-03-12T08:11:10.543Z,5.50
2023-03-12T08:13:37.387Z,6.47
2023-03-12T08:16:04.523Z,5.85
2023-03-12T08:18:31.237Z,5.97
2023-03-12T08:20:58.054Z,5.88
2023-03-12T08:23:25.130Z,5.90
2023-03-12T08:25:52.431Z,5.78
2023-03-12T08:28:22.203Z,5.65
2023-03-12T08:30:50.663Z,5.65
2023-03-12T08:33:17.417Z,5.90
2023-03-12T08:35:44.330Z,5.90
2023-03-12T08:38:11.465Z,6.03
2023-03-12T08:40:38.151Z,6.10
2023-03-12T08:43:05.166Z,5.40
2023-03-12T08:45:33.623Z,5.97
2023-03-12T08:48:00.381Z,5.32
2023-03-12T08:50:27.087Z,6.00
2023-03-12T08:52:53.768Z,6.32
2023-03-12T08:55:20.634Z,6.88
2023-03-12T08:57:47.490Z,5.53
2023-03-12T09:00:15.246Z,5.40
2023-03-12T09:02:45.082Z,5.13
2023-03-12T09:05:12.020Z,4.00
2023-03-12T09:07:38.748Z,5.10
2023-03-12T09:10:06.671Z,3.78
2023-03-12T09:12:33.479Z,4.13
2023-03-12T09:15:04.778Z,3.75
2023-03-12T09:17:32.126Z,4.38
2023-03-12T09:20:00.388Z,3.38
2023-03-12T09:22:29.084Z,4.72
2023-03-12T09:24:55.795Z,3.95
2023-03-12T09:27:22.493Z,3.90
2023-03-12T09:29:59.371Z,4.15
2023-03-12T09:32:27.630Z,3.35
2023-03-12T09:34:54.525Z,3.47
2023-03-12T09:37:24.318Z,4.28
2023-03-12T09:39:51.958Z,2.65
2023-03-12T09:42:24.916Z,3.15
2023-03-12T09:44:54.929Z,3.00
2023-03-12T09:47:27.494Z,2.40
2023-03-12T09:49:57.559Z,2.50
2023-03-12T09:52:31.689Z,2.35
2023-03-12T09:55:02.862Z,3.60
2023-03-12T09:57:29.770Z,1.77
2023-03-12T09:59:57.278Z,3.15
2023-03-12T10:02:42.506Z,2.30
2023-03-12T10:05:17.156Z,2.92
2023-03-12T10:07:49.935Z,2.80
2023-03-12T10:10:30.527Z,2.38
2023-03-12T10:13:12.937Z,1.88
2023-03-12T10:15:48.710Z,1.52
2023-03-12T10:18:25.195Z,1.80
2023-03-12T10:21:10.225Z,2.35
2023-03-12T10:23:49.184Z,2.38
2023-03-12T10:26:22.220Z,1.67
2023-03-12T10:28:51.564Z,2.22
2023-03-12T10:31:22.969Z,2.05
2023-03-12T10:33:54.632Z,2.08
2023-03-12T10:36:25.251Z,1.70
2023-03-12T10:38:53.286Z,1.98
2023-03-12T10:41:22.502Z,2.13
2023-03-12T10:43:49.882Z,2.63
2023-03-12T10:46:47.155Z,1.60
2023-03-12T10:49:24.967Z,1.80
2023-03-12T10:51:57.024Z,2.50
2023-03-12T10:54:28.858Z,1.65
2023-03-12T10:56:55.925Z,2.17
2023-03-12T10:59:26.813Z,1.63
2023-03-12T11:01:53.688Z,1.90
2023-03-12T11:04:25.424Z,2.60
2023-03-12T11:07:19.574Z,1.45
2023-03-12T11:10:14.345Z,1.50
2023-03-12T11:12:52.446Z,1.23
2023-03-12T11:15:21.167Z,1.90
2023-03-12T11:17:48.246Z,2.40
2023-03-12T11:20:28.761Z,1.73
2023-03-12T11:22:55.921Z,1.80
2023-03-12T11:25:27.407Z,1.83
2023-03-12T11:27:56.344Z,2.20
2023-03-12T11:30:29.368Z,1.65
2023-03-12T11:32:56.158Z,1.35
2023-03-12T11:35:39.274Z,1.65
2023-03-12T11:38:16.038Z,1.77
2023-03-12T11:41:04.265Z,1.83
2023-03-12T11:43:45.948Z,1.75
2023-03-12T11:46:22.086Z,1.90
2023-03-12T11:49:05.956Z,1.50
2023-03-12T11:51:43.052Z,2.40
2023-03-12T11:54:34.550Z,1.17
2023-03-12T11:57:09.325Z,1.65
2023-03-12T11:59:49.183Z,1.50
2023-03-12T12:02:27.982Z,1.45
2023-03-12T12:05:22.417Z,1.27
2023-03-12T12:08:08.395Z,1.10
2023-03-12T12:10:43.428Z,1.40
2023-03-12T12:13:19.012Z,1.25
2023-03-12T12:15:57.048Z,1.00
2023-03-12T12:18:47.630Z,1.33
2023-03-12T12:21:32.245Z,1.17
2023-03-12T12:24:09.512Z,1.55
2023-03-12T12:26:43.787Z,1.65
2023-03-12T12:29:25.080Z,1.35
2023-03-12T12:31:55.278Z,1.17
2023-03-12T12:34:57.319Z,1.50
2023-03-12T12:37:47.038Z,1.38
2023-03-12T12:40:21.269Z,1.20
2023-03-12T12:42:56.400Z,1.50
2023-03-12T12:45:26.053Z,1.45
2023-03-12T12:47:58.109Z,1.42
2023-03-12T12:50:29.038Z,1.90
2023-03-12T12:53:02.196Z,2.13
2023-03-12T12:55:33.439Z,2.10
2023-03-12T12:58:04.275Z,1.52
2023-03-12T13:00:43.539Z,1.58
2023-03-12T13:03:14.140Z,1.60
2023-03-12T13:05:45.941Z,1.60
2023-03-12T13:08:35.120Z,1.55
2023-03-12T13:11:17.155Z,1.98
2023-03-12T13:13:46.102Z,2.10
2023-03-12T13:16:31.170Z,2.17
2023-03-12T13:18:59.465Z,1.63
2023-03-12T13:21:33.813Z,1.77
2023-03-12T13:24:18.221Z,2.40
2023-03-12T13:27:00.342Z,2.00
2023-03-12T13:29:37.764Z,1.88
2023-03-12T13:32:09.524Z,2.92
2023-03-12T13:34:46.755Z,2.17
2023-03-12T13:37:55.324Z,2.55
2023-03-12T13:40:51.702Z,2.45
2023-03-12T13:43:41.801Z,1.80
2023-03-12T13:46:27.388Z,2.05
2023-03-12T13:48:59.610Z,2.00
2023-03-12T13:51:27.085Z,2.25
2023-03-12T13:53:58.388Z,2.15
2023-03-12T13:56:28.050Z,2.03
2023-03-12T13:58:57.113Z,2.40
2023-03-12T14:01:28.312Z,2.38
2023-03-12T14:04:00.253Z,2.35
2023-03-12T14:06:29.507Z,2.67
2023-03-12T14:09:07.184Z,2.35
2023-03-12T14:11:51.038Z,2.70
2023-03-12T14:14:43.007Z,2.83
2023-03-12T14:17:16.970Z,2.78
2023-03-12T14:19:48.757Z,2.35
2023-03-12T14:22:17.296Z,2.75
2023-03-12T14:24:51.070Z,2.42
2023-03-12T14:27:21.290Z,2.45
2023-03-12T14:29:53.137Z,2.50
2023-03-12T14:32:22.350Z,2.22
2023-03-12T14:34:55.011Z,3.03
2023-03-12T14:37:25.047Z,2.90
2023-03-12T14:39:54.816Z,2.58
2023-03-12T14:42:23.271Z,2.55
2023-03-12T14:44:56.869Z,4.05
2023-03-12T14:47:23.650Z,3.45
2023-03-12T14:49:51.714Z,2.92
2023-03-12T14:52:23.201Z,4.28
2023-03-12T14:54:55.021Z,3.17
2023-03-12T14:57:22.066Z,4.82
2023-03-12T14:59:53.437Z,9.63
2023-03-12T15:02:21.158Z,6.95
2023-03-12T15:04:49.632Z,3.67
2023-03-12T15:07:21.787Z,4.30
2023-03-12T15:09:51.111Z,3.92
2023-03-12T15:12:20.559Z,3.50
2023-03-12T15:14:49.111Z,8.75
2023-03-12T15:17:17.957Z,4.85
2023-03-12T15:19:45.672Z,5.68
2023-03-12T15:22:17.023Z,3.67
2023-03-12T15:24:45.358Z,6.22
2023-03-12T15:27:31.800Z,4.18
2023-03-12T15:30:00.035Z,5.57
2023-03-12T15:32:27.761Z,4.90
2023-03-12T15:34:57.035Z,6.90
2023-03-12T15:37:28.093Z,5.07
2023-03-12T15:39:57.002Z,6.30
2023-03-12T15:42:26.334Z,6.68
2023-03-12T15:44:55.072Z,6.28
2023-03-12T15:47:24.288Z,4.88
2023-03-12T15:49:54.221Z,4.68
2023-03-12T15:52:31.082Z,3.85
2023-03-12T15:55:19.362Z,2.67
2023-03-12T15:57:48.034Z,2.40
2023-03-12T16:00:23.720Z,2.95
2023-03-12T16:02:55.853Z,2.17
2023-03-12T16:05:26.988Z,2.58
2023-03-12T16:07:54.193Z,2.47
2023-03-12T16:10:24.107Z,1.90
2023-03-12T16:12:55.477Z,1.33
2023-03-12T16:15:27.836Z,1.25
2023-03-12T16:17:54.592Z,1.38
2023-03-12T16:20:21.374Z,1.60
2023-03-12T16:22:48.191Z,1.98
2023-03-12T16:25:15.093Z,1.30
2023-03-12T16:27:47.669Z,1.27
2023-03-12T16:30:17.405Z,1.50
2023-03-12T16:32:44.220Z,1.27
2023-03-12T16:35:15.870Z,1.17
2023-03-12T16:37:42.707Z,1.05
2023-03-12T16:40:11.869Z,1.20
2023-03-12T16:42:44.416Z,1.30
2023-03-12T16:45:13.907Z,1.13
2023-03-12T16:47:41.952Z,1.15
2023-03-12T16:50:14.583Z,1.25
2023-03-12T16:52:41.363Z,1.15
2023-03-12T16:55:08.771Z,1.30
2023-03-12T16:57:37.640Z,1.48
2023-03-12T17:00:08.543Z,1.35
2023-03-12T17:02:36.053Z,1.20
2023-03-12T17:05:03.012Z,1.38
2023-03-12T17:07:29.876Z,1.10
2023-03-12T17:09:56.642Z,1.38
2023-03-12T17:12:28.993Z,1.38
2023-03-12T17:14:56.446Z,1.70
2023-03-12T17:17:24.719Z,1.48
2023-03-12T17:19:51.473Z,1.33
2023-03-12T17:22:19.092Z,1.50
2023-03-12T17:24:45.949Z,1.70
2023-03-12T17:27:15.346Z,1.70
2023-03-12T17:29:42.189Z,1.52
2023-03-12T17:32:09.028Z,1.50
2023-03-12T17:34:37.276Z,1.45
2023-03-12T17:37:03.988Z,1.55
2023-03-12T17:39:30.843Z,1.25
2023-03-12T17:41:57.594Z,1.38
2023-03-12T17:44:24.283Z,1.17
2023-03-12T17:46:59.157Z,1.38
2023-03-12T17:49:26.808Z,1.33
2023-03-12T17:51:54.967Z,1.20
2023-03-12T17:54:22.339Z,1.45
2023-03-12T17:56:49.160Z,1.08
2023-03-12T17:59:15.906Z,1.60
2023-03-12T18:01:42.603Z,1.70
2023-03-12T18:04:09.357Z,1.58
2023-03-12T18:06:36.063Z,1.40
2023-03-12T18:09:04.116Z,1.70
2023-03-12T18:11:30.846Z,1.50
2023-03-12T18:13:57.555Z,1.30
2023-03-12T18:16:24.350Z,1.45
2023-03-12T18:18:52.627Z,1.80
2023-03-12T18:21:19.774Z,1.10
2023-03-12T18:23:46.450Z,1.50
2023-03-12T18:26:14.587Z,1.20
2023-03-12T18:28:41.272Z,1.23
2023-03-12T18:31:08.230Z,1.63
2023-03-12T18:33:34.973Z,2.03
2023-03-12T18:36:01.949Z,1.33
2023-03-12T18:38:28.706Z,1.67
2023-03-12T18:41:02.786Z,1.60
2023-03-12T18:45:57.513Z,1.30
2023-03-12T18:48:24.495Z,1.90
2023-03-12T18:50:51.220Z,1.20
2023-03-12T18:53:17.987Z,1.30
2023-03-12T18:55:51.660Z,1.65
2023-03-12T18:58:18.424Z,1.40
2023-03-12T19:00:46.515Z,1.45
2023-03-12T19:03:13.541Z,1.40
2023-03-12T19:05:40.336Z,1.63
2023-03-12T19:08:07.089Z,1.48
2023-03-12T19:10:33.870Z,1.60
2023-03-12T19:13:00.580Z,1.38
2023-03-12T19:15:27.685Z,1.85
2023-03-12T19:17:55.726Z,1.30
2023-03-12T19:20:22.571Z,1.48
2023-03-12T19:22:49.809Z,1.67
2023-03-12T19:25:16.756Z,1.25
2023-03-12T19:27:43.441Z,1.25
2023-03-12T19:30:11.578Z,1.40
2023-03-12T19:32:43.865Z,1.13
2023-03-12T19:35:14.849Z,1.17
2023-03-12T19:37:42.041Z,1.30
2023-03-12T19:40:09.931Z,1.42
2023-03-12T19:42:36.687Z,1.30
2023-03-12T19:45:03.790Z,1.15
2023-03-12T19:47:30.529Z,1.17
2023-03-12T19:49:57.209Z,1.27
2023-03-12T19:52:25.347Z,1.73
2023-03-12T19:55:03.898Z,1.10
2023-03-12T19:57:31.746Z,1.30
2023-03-12T19:59:58.482Z,1.65
2023-03-12T20:02:25.677Z,1.23
2023-03-12T20:04:52.450Z,1.08
2023-03-12T20:07:19.172Z,1.30
2023-03-12T20:09:47.430Z,1.52
2023-03-12T20:12:14.161Z,1.40
2023-03-12T20:14:42.628Z,1.20
2023-03-12T20:17:09.931Z,1.27
2023-03-12T20:19:36.651Z,1.45
2023-03-12T20:22:03.456Z,1.30
2023-03-12T20:24:30.286Z,1.20
2023-03-12T20:26:58.407Z,1.05
2023-03-12T20:29:25.129Z,1.35
2023-03-12T20:31:52.172Z,2.05
2023-03-12T20:34:18.946Z,1.90
2023-03-12T20:36:45.699Z,1.40
2023-03-12T20:39:12.454Z,1.70
2023-03-12T20:41:39.323Z,1.67
2023-03-12T20:44:07.680Z,1.35
2023-03-12T20:46:34.527Z,1.25
2023-03-12T20:49:01.310Z,1.83
2023-03-12T20:51:28.035Z,1.83
2023-03-12T20:53:54.804Z,1.42
2023-03-12T20:56:21.556Z,1.52
2023-03-12T20:58:48.264Z,1.10
2023-03-12T21:01:16.521Z,1.63
2023-03-12T21:03:43.295Z,1.40
2023-03-12T21:06:10.050Z,1.17
2023-03-12T21:08:36.753Z,1.50
2023-03-12T21:11:05.543Z,1.13
2023-03-12T21:13:32.341Z,1.08
2023-03-12T21:15:59.071Z,1.73
2023-03-12T21:18:27.240Z,1.15
2023-03-12T21:20:54.072Z,1.70
2023-03-12T21:23:21.024Z,1.42
2023-03-12T21:25:47.759Z,1.42
2023-03-12T21:28:15.264Z,1.27
2023-03-12T21:30:42.152Z,1.17
2023-03-12T21:33:08.914Z,1.13
2023-03-12T21:35:37.035Z,1.25
2023-03-12T21:38:03.769Z,1.38
2023-03-12T21:40:30.482Z,1.33
2023-03-12T21:42:57.188Z,1.50
2023-03-12T21:45:23.910Z,1.20
2023-03-12T21:47:50.591Z,1.52
2023-03-12T21:50:17.440Z,1.10
2023-03-12T21:52:45.527Z,1.40
2023-03-12T21:55:12.228Z,1.27
2023-03-12T21:57:39.039Z,1.23
2023-03-12T22:00:07.068Z,1.40
2023-03-12T22:02:33.776Z,1.25
2023-03-12T22:05:00.471Z,1.40
2023-03-12T22:07:29.089Z,1.02
2023-03-12T22:09:57.295Z,1.13
2023-03-12T22:12:24.330Z,1.30
2023-03-12T22:14:51.225Z,1.23
2023-03-12T22:17:18.242Z,1.92
2023-03-12T22:19:44.979Z,1.30
2023-03-12T22:22:11.935Z,1.75
2023-03-12T22:24:38.694Z,1.23
2023-03-12T22:27:07.250Z,1.58
2023-03-12T22:29:34.273Z,1.10
2023-03-12T22:32:01.209Z,1.30
2023-03-12T22:34:28.170Z,1.67
2023-03-12T22:36:54.894Z,1.35
2023-03-12T22:39:21.603Z,1.40
2023-03-12T22:41:48.843Z,1.30
2023-03-12T22:44:17.237Z,1.63
2023-03-12T22:46:44.055Z,1.20
2023-03-12T22:49:10.837Z,1.30
2023-03-12T22:51:37.565Z,1.40
2023-03-12T22:54:04.522Z,1.27
2023-03-12T22:56:31.306Z,1.20
2023-03-12T22:58:58.046Z,2.22
2023-03-12T23:01:26.461Z,1.50
2023-03-12T23:03:53.393Z,1.40
2023-03-12T23:06:21.842Z,1.33
2023-03-12T23:08:49.119Z,1.35
2023-03-12T23:11:17.169Z,1.40
2023-03-12T23:13:45.703Z,1.40
2023-03-12T23:16:13.804Z,1.25
2023-03-12T23:18:42.007Z,1.23
2023-03-12T23:21:10.432Z,1.13
2023-03-12T23:23:37.297Z,1.25
2023-03-12T23:26:04.330Z,1.20
2023-03-12T23:28:31.564Z,1.20
2023-03-12T23:31:00.174Z,0.98
2023-03-12T23:33:28.303Z,1.10
2023-03-12T23:35:58.237Z,0.93
2023-03-12T23:38:25.276Z,1.13
2023-03-12T23:40:52.125Z,1.30
2023-03-12T23:43:18.888Z,1.08
2023-03-12T23:45:45.779Z,1.23
2023-03-12T23:48:12.482Z,1.80
2023-03-12T23:50:39.224Z,1.10
2023-03-12T23:53:07.610Z,1.15
2023-03-12T23:55:34.310Z,1.58
2023-03-12T23:58:01.029Z,1.00
